イエローナイフ の空港の天気 - METARとTAF

イエローナイフ空港 ( CYZF / YZF ) - カナダ ノースウエスト準州イエローナイフ
飛行場実況気象(Metar)
観測時間04/25 08:00 MDT (04/25 14:00 UTC)
風向・風速南東 4m/s
視程10km以上
天気現象
全天の8割程度の雲 雲底高度 1920m
気温-8℃
湿度73%
気圧1018.4hPa
METARCYZF 251400Z 13008KT 15SM BKN063 M08/M12 A3002 RMK SC7 SLP184
過去の天気等 Google飛行場航空写真 Wunderground天気予報

過去48時間のMETAR

飛行場予報(TAF)
発表時間: 4/25 05:38 MDT (4/25 11:38 UTC)
予報対象時間: 25日6時 MDT ~ 26日6時 MDT
風向・風速東 5m/s
視程10km以上
全天の8割程度の雲 雲底高度 2,130m
25日6時 MDT ~ 25日21時 MDT に一時的に
全天の4割程度の雲 雲底高度 2,130m
25日10時 MDT ~ 25日12時 MDT に徐々に
風向・風速南東 5m/s
25日21時 MDT から
風向・風速南東 3m/s
視程10km以上
全天の8割程度の雲 雲底高度 910m
全天の8割程度の雲 雲底高度 2,130m
25日22時 MDT ~ 25日24時 MDT に徐々に
風向・風速北西 5m/s
TAF CYZF 251138Z 2512/2612 09010KT P6SM BKN070
TEMPO 2512/2603 SCT070
BECMG 2516/2518 14010KT
FM260300 14005KT P6SM BKN030 BKN070
BECMG 2604/2606 31010KT RMK NXT FCST BY 251800Z